Terminal Aerodrome Forecast
Issued by NWS Cleveland, OH

Home | Current Version | Previous Version | Graphics & Text | Print | Product List | Glossary On
Versions: 1 2 3 4 5 6 7 8 9 10 11 12 13 14 15 16 17 18 19 20 21 22 23 24 25
125
FTUS41 KCLE 171736
TAFCLE
TAF
KCLE 171736Z 1718/1824 03008KT P6SM BKN250
     FM180600 05006KT P6SM BKN150
     FM181500 06010G20KT P6SM BKN100
     FM181900 08015G30KT P6SM OVC070=

USA.gov is the U.S. government's official web portal to all federal, state and local government web resources and services.